Homestead National Monument, Nebraska
Current Conditions -  °F | °C
As of 11:55 PM on Tuesday 21 Oct 2014 (Local Time) from KBIE Reporting Station
Clear Clear  
Wind Chill: 60°   Ceiling: Unl
Heat Index: 60°   Visibility: 10mi
Dew Point: 43°   Wind: 10mph
Humidity: 54%   Direction: 140°SE
Pressure: 30.04"   Gusts: NA
Location:  40.2674°N, 96.7699°W
Report Text: KBIE 220455Z AUTO 14009KT 10SM CLR 16/06 A3004 RMK AO2 T01560063
Loading
Personal Weather Stations






























Interactive Weather Map
Tropical Storm Tracking
New forecast layout! Learn more

10-Day Weather Forecast

Advertisements
Track Severe Weather on mobile